createdAt,value
2022-12-04T00:01:28.343Z,11.20
2022-12-04T00:03:58.552Z,11.67
2022-12-04T00:06:27.391Z,10.97
2022-12-04T00:08:56.113Z,10.80
2022-12-04T00:11:27.160Z,10.37
2022-12-04T00:14:03.005Z,10.53
2022-12-04T00:16:35.060Z,10.37
2022-12-04T00:19:03.273Z,10.80
2022-12-04T00:21:31.714Z,10.57
2022-12-04T00:23:59.930Z,10.83
2022-12-04T00:26:31.103Z,9.93
2022-12-04T00:29:01.229Z,9.53
2022-12-04T00:31:31.573Z,9.80
2022-12-04T00:34:00.701Z,9.37
2022-12-04T00:36:31.372Z,9.60
2022-12-04T00:39:00.961Z,10.47
2022-12-04T00:41:33.927Z,10.37
2022-12-04T00:44:04.311Z,10.90
2022-12-04T00:46:32.525Z,11.00
2022-12-04T00:49:02.537Z,10.50
2022-12-04T00:51:31.332Z,9.97
2022-12-04T00:53:59.487Z,11.07
2022-12-04T00:56:29.467Z,10.03
2022-12-04T00:58:59.204Z,11.30
2022-12-04T01:01:29.846Z,11.00
2022-12-04T01:03:58.418Z,11.30
2022-12-04T01:06:28.230Z,10.43
2022-12-04T01:08:57.556Z,10.93
2022-12-04T01:11:27.001Z,10.13
2022-12-04T01:13:55.175Z,10.83
2022-12-04T01:16:25.889Z,11.70
2022-12-04T01:18:56.783Z,10.67
2022-12-04T01:21:24.968Z,10.20
2022-12-04T01:23:53.270Z,10.17
2022-12-04T01:26:22.388Z,9.87
2022-12-04T01:28:50.534Z,11.83
2022-12-04T01:31:21.335Z,11.77
2022-12-04T01:33:50.447Z,10.60
2022-12-04T01:36:24.293Z,10.70
2022-12-04T01:38:53.109Z,10.87
2022-12-04T01:41:26.934Z,10.43
2022-12-04T01:44:16.066Z,10.80
2022-12-04T01:46:45.580Z,10.10
2022-12-04T01:49:16.959Z,9.50
2022-12-04T01:51:50.985Z,10.07
2022-12-04T01:54:28.592Z,9.80
2022-12-04T01:57:03.299Z,10.40
2022-12-04T01:59:36.389Z,9.70
2022-12-04T02:02:08.229Z,10.33
2022-12-04T02:04:37.462Z,10.63
2022-12-04T02:07:07.103Z,11.33
2022-12-04T02:09:36.664Z,10.93
2022-12-04T02:12:11.991Z,9.63
2022-12-04T02:14:50.066Z,11.60
2022-12-04T02:17:25.741Z,10.70
2022-12-04T02:20:09.694Z,11.00
2022-12-04T02:23:20.826Z,10.27
2022-12-04T02:25:58.714Z,10.37
2022-12-04T02:28:34.831Z,10.87
2022-12-04T02:31:05.969Z,10.43
2022-12-04T02:33:42.683Z,10.90
2022-12-04T02:36:14.684Z,9.93
2022-12-04T02:38:46.594Z,9.80
2022-12-04T02:41:18.641Z,9.60
2022-12-04T02:43:52.172Z,11.40
2022-12-04T02:46:23.647Z,10.30
2022-12-04T02:48:54.497Z,10.13
2022-12-04T02:51:26.770Z,9.70
2022-12-04T02:53:59.192Z,10.10
2022-12-04T02:56:30.169Z,10.67
2022-12-04T02:59:02.287Z,11.90
2022-12-04T03:01:35.417Z,12.27
2022-12-04T03:04:08.577Z,10.63
2022-12-04T03:06:40.608Z,10.20
2022-12-04T03:09:13.714Z,10.17
2022-12-04T03:11:45.390Z,10.43
2022-12-04T03:14:19.463Z,11.33
2022-12-04T03:16:49.578Z,10.90
2022-12-04T03:19:21.264Z,10.50
2022-12-04T03:21:53.606Z,11.30
2022-12-04T03:24:26.263Z,10.97
2022-12-04T03:27:02.243Z,11.37
2022-12-04T03:29:36.336Z,11.10
2022-12-04T03:32:11.026Z,10.90
2022-12-04T03:34:45.881Z,10.70
2022-12-04T03:37:18.104Z,10.80
2022-12-04T03:39:56.734Z,11.47
2022-12-04T03:42:28.667Z,9.43
2022-12-04T03:45:04.236Z,10.83
2022-12-04T03:47:37.854Z,10.70
2022-12-04T03:50:15.161Z,11.00
2022-12-04T03:52:49.679Z,10.00
2022-12-04T03:55:24.261Z,10.03
2022-12-04T03:57:54.299Z,10.73
2022-12-04T04:00:24.746Z,11.00
2022-12-04T04:02:57.263Z,10.60
2022-12-04T04:05:27.049Z,10.97
2022-12-04T04:08:20.596Z,10.80
2022-12-04T04:10:49.689Z,10.17
2022-12-04T04:13:39.188Z,11.37
2022-12-04T04:16:32.962Z,10.93
2022-12-04T04:19:20.810Z,10.23
2022-12-04T04:22:09.120Z,10.60
2022-12-04T04:24:47.575Z,11.27
2022-12-04T04:27:15.956Z,11.00
2022-12-04T04:29:51.873Z,10.63
2022-12-04T04:32:28.808Z,10.50
2022-12-04T04:35:04.756Z,10.33
2022-12-04T04:37:39.787Z,9.50
2022-12-04T04:40:14.493Z,10.40
2022-12-04T04:42:50.380Z,10.20
2022-12-04T04:45:23.164Z,9.50
2022-12-04T04:47:57.995Z,9.97
2022-12-04T04:50:26.932Z,9.40
2022-12-04T04:53:00.106Z,9.40
2022-12-04T04:55:29.579Z,9.23
2022-12-04T04:58:08.090Z,8.77
2022-12-04T05:00:36.363Z,9.87
2022-12-04T05:03:06.384Z,9.20
2022-12-04T05:05:34.765Z,9.00
2022-12-04T05:08:03.213Z,9.30
2022-12-04T05:10:31.568Z,9.50
2022-12-04T05:12:59.780Z,9.37
2022-12-04T05:15:27.953Z,9.50
2022-12-04T05:17:56.148Z,9.00
2022-12-04T05:20:24.695Z,9.90
2022-12-04T05:22:52.910Z,8.73
2022-12-04T05:25:21.098Z,9.20
2022-12-04T05:27:49.304Z,9.27
2022-12-04T05:30:18.051Z,8.27
2022-12-04T05:32:46.576Z,9.23
2022-12-04T05:35:15.020Z,7.97
2022-12-04T05:37:45.626Z,8.20
2022-12-04T05:40:14.163Z,9.40
2022-12-04T05:42:42.358Z,8.90
2022-12-04T05:45:11.190Z,8.93
2022-12-04T05:47:40.270Z,9.10
2022-12-04T05:50:10.253Z,8.40
2022-12-04T05:52:38.480Z,8.30
2022-12-04T05:55:08.847Z,8.17
2022-12-04T05:57:37.040Z,8.50
2022-12-04T06:00:06.322Z,8.73
2022-12-04T06:02:39.524Z,8.93
2022-12-04T06:05:08.467Z,8.60
2022-12-04T06:07:37.025Z,8.07
2022-12-04T06:10:07.766Z,8.73
2022-12-04T06:12:35.984Z,8.00
2022-12-04T06:15:04.443Z,8.13
2022-12-04T06:17:32.678Z,8.70
2022-12-04T06:20:03.295Z,8.63
2022-12-04T06:22:34.856Z,8.13
2022-12-04T06:25:02.989Z,8.90
2022-12-04T06:27:32.485Z,9.00
2022-12-04T06:30:00.698Z,8.20
2022-12-04T06:32:29.253Z,8.70
2022-12-04T06:34:57.457Z,8.83
2022-12-04T06:37:26.557Z,8.00
2022-12-04T06:39:55.084Z,8.37
2022-12-04T06:42:23.494Z,8.50
2022-12-04T06:44:53.043Z,9.77
2022-12-04T06:47:21.197Z,9.20
2022-12-04T06:49:51.344Z,8.83
2022-12-04T06:52:19.594Z,8.47
2022-12-04T06:54:47.841Z,8.80
2022-12-04T06:57:16.027Z,8.97
2022-12-04T06:59:44.178Z,8.70
2022-12-04T07:02:13.768Z,8.40
2022-12-04T07:04:42.008Z,8.70
2022-12-04T07:07:10.931Z,9.10
2022-12-04T07:09:39.386Z,8.93
2022-12-04T07:12:08.109Z,9.03
2022-12-04T07:14:39.394Z,8.30
2022-12-04T07:17:07.590Z,8.60
2022-12-04T07:19:38.469Z,9.50
2022-12-04T07:22:08.807Z,9.90
2022-12-04T07:24:37.921Z,9.17
2022-12-04T07:27:06.454Z,9.17
2022-12-04T07:29:34.984Z,9.83
2022-12-04T07:32:03.598Z,9.97
2022-12-04T07:34:32.096Z,9.43
2022-12-04T07:37:01.701Z,10.10
2022-12-04T07:39:29.855Z,10.23
2022-12-04T07:41:58.041Z,9.47
2022-12-04T07:44:26.402Z,11.73
2022-12-04T07:46:54.573Z,11.97
2022-12-04T07:49:22.777Z,11.13
2022-12-04T07:51:50.952Z,11.47
2022-12-04T07:54:20.497Z,10.47
2022-12-04T07:56:48.615Z,11.60
2022-12-04T07:59:16.785Z,11.27
2022-12-04T08:01:45.150Z,10.63
2022-12-04T08:04:13.682Z,11.67
2022-12-04T08:06:42.242Z,11.60
2022-12-04T08:09:10.598Z,11.23
2022-12-04T08:11:40.393Z,11.93
2022-12-04T08:14:09.886Z,11.90
2022-12-04T08:16:38.268Z,11.40
2022-12-04T08:19:07.166Z,12.60
2022-12-04T08:21:35.555Z,11.40
2022-12-04T08:24:03.944Z,11.27
2022-12-04T08:26:33.683Z,11.33
2022-12-04T08:29:04.429Z,11.13
2022-12-04T08:31:34.291Z,11.43
2022-12-04T08:34:04.865Z,11.47
2022-12-04T08:36:33.733Z,11.80
2022-12-04T08:39:01.937Z,11.00
2022-12-04T08:41:30.289Z,12.07
2022-12-04T08:43:59.429Z,11.20
2022-12-04T08:46:29.379Z,11.83
2022-12-04T08:48:57.996Z,12.77
2022-12-04T08:51:28.087Z,12.33
2022-12-04T08:53:57.347Z,12.00
2022-12-04T08:56:26.491Z,10.53
2022-12-04T08:58:56.252Z,9.80
2022-12-04T09:01:25.572Z,12.30
2022-12-04T09:03:55.878Z,11.87
2022-12-04T09:06:24.876Z,11.77
2022-12-04T09:08:55.349Z,11.13
2022-12-04T09:11:25.168Z,12.40
2022-12-04T09:13:53.595Z,11.23
2022-12-04T09:16:23.675Z,11.30
2022-12-04T09:18:52.276Z,11.20
2022-12-04T09:21:23.063Z,11.30
2022-12-04T09:23:51.956Z,11.30
2022-12-04T09:26:25.982Z,10.80
2022-12-04T09:28:55.242Z,11.60
2022-12-04T09:31:25.435Z,11.40
2022-12-04T09:33:54.330Z,11.70
2022-12-04T09:36:24.331Z,10.00
2022-12-04T09:38:54.674Z,11.87
2022-12-04T09:41:39.460Z,12.27
2022-12-04T09:44:11.899Z,11.03
2022-12-04T09:46:44.596Z,11.30
2022-12-04T09:49:17.512Z,11.60
2022-12-04T09:51:48.656Z,11.00
2022-12-04T09:54:20.106Z,11.27
2022-12-04T09:56:54.669Z,11.20
2022-12-04T09:59:26.815Z,11.60
2022-12-04T10:02:01.872Z,12.07
2022-12-04T10:04:31.291Z,11.90
2022-12-04T10:07:06.031Z,11.87
2022-12-04T10:09:44.618Z,12.80
2022-12-04T10:12:24.175Z,11.13
2022-12-04T10:15:19.558Z,12.17
2022-12-04T10:18:14.001Z,11.00
2022-12-04T10:20:59.699Z,11.17
2022-12-04T10:23:39.478Z,11.70
2022-12-04T10:26:16.279Z,12.77
2022-12-04T10:28:54.879Z,11.87
2022-12-04T10:31:24.430Z,11.20
2022-12-04T10:33:56.407Z,11.10
2022-12-04T10:36:30.481Z,11.53
2022-12-04T10:39:02.343Z,12.07
2022-12-04T10:41:35.861Z,12.00
2022-12-04T10:44:04.028Z,13.70
2022-12-04T10:46:35.957Z,11.90
2022-12-04T10:49:09.469Z,12.32
2022-12-04T10:51:41.223Z,12.47
2022-12-04T10:54:21.492Z,11.90
2022-12-04T10:56:58.634Z,12.13
2022-12-04T10:59:28.009Z,11.00
2022-12-04T11:02:06.691Z,12.27
2022-12-04T11:04:36.581Z,13.00
2022-12-04T11:07:06.626Z,12.27
2022-12-04T11:09:36.928Z,12.40
2022-12-04T11:12:10.654Z,12.90
2022-12-04T11:14:42.763Z,10.63
2022-12-04T11:17:18.529Z,12.73
2022-12-04T11:19:47.205Z,12.37
2022-12-04T11:22:18.894Z,12.50
2022-12-04T11:24:56.421Z,13.67
2022-12-04T11:27:28.341Z,12.23
2022-12-04T11:29:57.597Z,13.77
2022-12-04T11:32:28.812Z,12.83
2022-12-04T11:35:01.022Z,12.40
2022-12-04T11:37:33.750Z,12.43
2022-12-04T11:40:06.228Z,13.10
2022-12-04T11:42:34.501Z,12.27
2022-12-04T11:45:04.981Z,12.70
2022-12-04T11:47:34.348Z,13.60
2022-12-04T11:50:11.478Z,12.70
2022-12-04T11:52:59.274Z,12.47
2022-12-04T11:55:35.366Z,13.07
2022-12-04T11:58:20.749Z,12.20
2022-12-04T12:00:57.111Z,12.17
2022-12-04T12:03:32.870Z,12.40
2022-12-04T12:06:30.996Z,13.53
2022-12-04T12:09:17.592Z,13.43
2022-12-04T12:11:53.021Z,13.67
2022-12-04T12:14:28.471Z,12.57
2022-12-04T12:17:04.469Z,12.37
2022-12-04T12:19:49.095Z,13.30
2022-12-04T12:22:33.667Z,12.37
2022-12-04T12:25:11.344Z,12.47
2022-12-04T12:27:56.041Z,14.00
2022-12-04T12:30:25.696Z,13.40
2022-12-04T12:33:05.932Z,12.50
2022-12-04T12:35:39.756Z,12.10
2022-12-04T12:38:12.732Z,12.57
2022-12-04T12:40:43.870Z,12.50
2022-12-04T12:43:20.998Z,12.87
2022-12-04T12:45:54.413Z,13.40
2022-12-04T12:48:29.649Z,13.60
2022-12-04T12:51:28.701Z,12.97
2022-12-04T12:53:54.424Z,13.73
2022-12-04T12:56:30.900Z,12.97
2022-12-04T12:59:04.810Z,12.10
2022-12-04T13:01:42.832Z,12.40
2022-12-04T13:04:14.473Z,13.17
2022-12-04T13:06:47.871Z,13.40
2022-12-04T13:09:25.478Z,12.67
2022-12-04T13:12:00.171Z,11.80
2022-12-04T13:14:29.781Z,11.53
2022-12-04T13:17:02.879Z,12.63
2022-12-04T13:19:35.487Z,12.10
2022-12-04T13:22:16.283Z,12.17
2022-12-04T13:25:07.153Z,11.30
2022-12-04T13:27:46.353Z,12.10
2022-12-04T13:30:19.933Z,11.43
2022-12-04T13:33:05.420Z,11.83
2022-12-04T13:36:02.312Z,11.70
2022-12-04T13:38:37.457Z,11.30
2022-12-04T13:41:08.176Z,12.50
2022-12-04T13:43:37.905Z,11.27
2022-12-04T13:46:21.318Z,11.37
2022-12-04T13:48:49.931Z,12.67
2022-12-04T13:51:34.598Z,12.00
2022-12-04T13:54:35.188Z,12.40
2022-12-04T13:57:22.055Z,11.40
2022-12-04T13:59:51.378Z,12.50
2022-12-04T14:02:32.204Z,12.20
2022-12-04T14:05:01.992Z,11.77
2022-12-04T14:07:33.782Z,12.07
2022-12-04T14:10:04.931Z,12.50
2022-12-04T14:12:35.550Z,12.47
2022-12-04T14:15:06.478Z,11.90
2022-12-04T14:17:38.134Z,11.97
2022-12-04T14:20:10.250Z,11.70
2022-12-04T14:22:44.196Z,12.20
2022-12-04T14:25:35.734Z,12.37
2022-12-04T14:28:25.959Z,12.20
2022-12-04T14:31:11.065Z,11.90
2022-12-04T14:33:45.648Z,12.87
2022-12-04T14:36:20.136Z,11.80
2022-12-04T14:38:51.803Z,11.73
2022-12-04T14:41:25.625Z,13.37
2022-12-04T14:43:53.992Z,13.57
2022-12-04T14:46:28.993Z,12.57
2022-12-04T14:49:07.774Z,13.23
2022-12-04T14:51:38.346Z,12.07
2022-12-04T14:54:20.362Z,13.63
2022-12-04T14:57:01.160Z,13.33
2022-12-04T14:59:41.471Z,13.03
2022-12-04T15:02:15.148Z,12.33
2022-12-04T15:04:46.991Z,11.93
2022-12-04T15:07:22.592Z,12.27
2022-12-04T15:10:13.708Z,12.00
2022-12-04T15:12:46.049Z,12.50
2022-12-04T15:15:19.428Z,12.13
2022-12-04T15:17:58.201Z,12.50
2022-12-04T15:20:29.905Z,12.20
2022-12-04T15:22:59.465Z,13.03
2022-12-04T15:25:32.453Z,13.63
2022-12-04T15:28:07.613Z,13.67
2022-12-04T15:30:39.603Z,12.73
2022-12-04T15:33:08.715Z,12.80
2022-12-04T15:35:43.755Z,12.90
2022-12-04T15:38:13.834Z,13.83
2022-12-04T15:40:52.288Z,13.32
2022-12-04T15:43:28.328Z,13.20
2022-12-04T15:45:56.667Z,12.60
2022-12-04T15:48:27.013Z,15.20
2022-12-04T15:51:03.376Z,14.10
2022-12-04T15:53:35.152Z,12.77
2022-12-04T15:56:06.716Z,13.60
2022-12-04T15:58:37.555Z,12.70
2022-12-04T16:01:07.980Z,12.50
2022-12-04T16:03:40.852Z,13.17
2022-12-04T16:06:17.792Z,12.87
2022-12-04T16:08:48.068Z,14.03
2022-12-04T16:11:34.142Z,12.67
2022-12-04T16:14:17.627Z,13.10
2022-12-04T16:16:48.305Z,12.70
2022-12-04T16:19:25.722Z,13.50
2022-12-04T16:21:55.465Z,12.27
2022-12-04T16:24:23.859Z,13.30
2022-12-04T16:26:54.747Z,13.00
2022-12-04T16:29:23.226Z,13.30
2022-12-04T16:31:52.346Z,13.30
2022-12-04T16:34:20.755Z,14.07
2022-12-04T16:36:48.946Z,13.27
2022-12-04T16:39:18.533Z,13.60
2022-12-04T16:41:46.612Z,13.10
2022-12-04T16:44:17.267Z,14.20
2022-12-04T16:46:51.503Z,13.70
2022-12-04T16:49:19.734Z,13.73
2022-12-04T16:51:50.560Z,13.73
2022-12-04T16:54:20.047Z,14.07
2022-12-04T16:56:48.180Z,13.77
2022-12-04T16:59:16.355Z,12.87
2022-12-04T17:01:48.794Z,14.03
2022-12-04T17:04:17.376Z,13.90
2022-12-04T17:06:46.516Z,13.97
2022-12-04T17:09:15.693Z,14.87
2022-12-04T17:11:45.872Z,15.10
2022-12-04T17:14:14.935Z,14.30
2022-12-04T17:16:46.660Z,15.30
2022-12-04T17:19:15.175Z,13.90
2022-12-04T17:21:45.040Z,15.50
2022-12-04T17:24:13.264Z,13.50
2022-12-04T17:26:41.551Z,15.23
2022-12-04T17:29:11.112Z,15.93
2022-12-04T17:31:39.572Z,15.43
2022-12-04T17:34:07.776Z,16.57
2022-12-04T17:36:35.939Z,15.30
2022-12-04T17:39:04.759Z,16.00
2022-12-04T17:41:32.942Z,15.93
2022-12-04T17:44:01.677Z,16.37
2022-12-04T17:46:31.525Z,15.27
2022-12-04T17:49:05.329Z,16.37
2022-12-04T17:51:35.870Z,16.83
2022-12-04T17:54:04.277Z,15.43
2022-12-04T17:56:32.983Z,15.98
2022-12-04T17:59:01.245Z,15.70
2022-12-04T18:01:31.153Z,15.10
2022-12-04T18:04:01.871Z,15.80
2022-12-04T18:06:32.131Z,15.63
2022-12-04T18:09:00.467Z,16.40
2022-12-04T18:11:31.302Z,15.97
2022-12-04T18:14:03.093Z,16.00
2022-12-04T18:16:36.920Z,16.10
2022-12-04T18:19:05.696Z,14.97
2022-12-04T18:21:35.275Z,16.50
2022-12-04T18:24:05.828Z,16.90
2022-12-04T18:26:35.864Z,16.43
2022-12-04T18:29:04.811Z,16.50
2022-12-04T18:31:36.023Z,17.00
2022-12-04T18:34:06.538Z,15.87
2022-12-04T18:36:36.617Z,16.30
2022-12-04T18:39:06.859Z,16.20
2022-12-04T18:41:35.489Z,16.60
2022-12-04T18:44:04.168Z,16.23
2022-12-04T18:46:33.027Z,15.30
2022-12-04T18:49:03.315Z,16.07
2022-12-04T18:51:33.133Z,16.80
2022-12-04T18:54:03.606Z,15.70
2022-12-04T18:56:33.611Z,15.60
2022-12-04T18:59:03.958Z,16.37
2022-12-04T19:01:32.477Z,16.17
2022-12-04T19:04:04.476Z,16.30
2022-12-04T19:06:34.725Z,16.33
2022-12-04T19:09:05.345Z,16.97
2022-12-04T19:11:34.012Z,16.90
2022-12-04T19:14:08.313Z,16.65
2022-12-04T19:16:40.918Z,16.47
2022-12-04T19:19:11.375Z,17.23
2022-12-04T19:21:39.727Z,15.43
2022-12-04T19:24:08.807Z,16.63
2022-12-04T19:26:36.991Z,15.60
2022-12-04T19:29:06.215Z,17.07
2022-12-04T19:31:36.413Z,15.80
2022-12-04T19:34:06.208Z,16.63
2022-12-04T19:36:36.466Z,18.50
2022-12-04T19:39:06.114Z,16.50
2022-12-04T19:41:37.107Z,17.60
2022-12-04T19:44:26.426Z,15.17
2022-12-04T19:46:54.019Z,16.47
2022-12-04T19:49:22.260Z,15.80
2022-12-04T19:51:51.850Z,15.53
2022-12-04T19:54:20.954Z,16.53
2022-12-04T19:56:52.642Z,16.53
2022-12-04T19:59:21.324Z,18.17
2022-12-04T20:01:49.609Z,17.17
2022-12-04T20:04:17.975Z,16.17
2022-12-04T20:06:47.190Z,16.87
2022-12-04T20:09:19.808Z,17.77
2022-12-04T20:11:47.957Z,18.53
2022-12-04T20:14:16.378Z,17.83
2022-12-04T20:16:44.893Z,18.30
2022-12-04T20:19:15.588Z,19.50
2022-12-04T20:21:43.944Z,16.97
2022-12-04T20:24:14.783Z,17.63
2022-12-04T20:26:45.866Z,18.60
2022-12-04T20:29:16.254Z,19.50
2022-12-04T20:31:45.814Z,17.80
2022-12-04T20:34:16.201Z,18.30
2022-12-04T20:36:46.079Z,18.00
2022-12-04T20:39:15.239Z,19.30
2022-12-04T20:41:45.036Z,18.07
2022-12-04T20:44:15.923Z,17.03
2022-12-04T20:46:44.700Z,17.87
2022-12-04T20:49:21.308Z,18.65
2022-12-04T20:51:51.723Z,18.63
2022-12-04T20:54:22.706Z,16.97
2022-12-04T20:56:53.566Z,17.00
2022-12-04T20:59:23.197Z,17.90
2022-12-04T21:01:52.559Z,17.50
2022-12-04T21:04:21.267Z,18.50
2022-12-04T21:06:50.117Z,18.50
2022-12-04T21:09:20.868Z,16.60
2022-12-04T21:11:52.298Z,16.67
2022-12-04T21:14:39.823Z,16.47
2022-12-04T21:17:11.685Z,16.70
2022-12-04T21:19:40.024Z,16.70
2022-12-04T21:22:08.236Z,16.90
2022-12-04T21:24:38.775Z,17.03
2022-12-04T21:27:14.544Z,17.57
2022-12-04T21:29:45.508Z,17.07
2022-12-04T21:32:13.669Z,16.47
2022-12-04T21:34:41.808Z,17.07
2022-12-04T21:37:09.987Z,17.17
2022-12-04T21:39:39.117Z,16.50
2022-12-04T21:42:24.792Z,17.37
2022-12-04T21:44:54.337Z,17.03
2022-12-04T21:47:22.668Z,16.00
2022-12-04T21:49:50.822Z,15.93
2022-12-04T21:52:22.761Z,16.43
2022-12-04T21:54:51.894Z,16.00
2022-12-04T21:57:20.630Z,16.70
2022-12-04T21:59:49.019Z,17.33
2022-12-04T22:02:18.581Z,16.20
2022-12-04T22:04:46.875Z,17.07
2022-12-04T22:07:15.107Z,17.53
2022-12-04T22:09:43.443Z,16.70
2022-12-04T22:12:26.780Z,16.97
2022-12-04T22:14:59.894Z,16.43
2022-12-04T22:17:31.574Z,18.00
2022-12-04T22:19:59.991Z,16.03
2022-12-04T22:22:28.307Z,16.83
2022-12-04T22:24:56.452Z,17.00
2022-12-04T22:27:24.663Z,17.00
2022-12-04T22:29:53.044Z,17.60
2022-12-04T22:32:21.418Z,18.13
2022-12-04T22:34:51.008Z,17.50
2022-12-04T22:37:19.196Z,16.70
2022-12-04T22:39:47.362Z,18.13
2022-12-04T22:42:15.549Z,18.00
2022-12-04T22:44:44.035Z,17.00
2022-12-04T22:47:12.244Z,17.50
2022-12-04T22:49:40.502Z,16.27
2022-12-04T22:52:10.337Z,16.83
2022-12-04T22:54:38.492Z,17.10
2022-12-04T22:57:06.692Z,17.23
2022-12-04T22:59:34.852Z,16.90
2022-12-04T23:02:03.103Z,17.23
2022-12-04T23:04:31.471Z,17.47
2022-12-04T23:06:59.686Z,17.23
2022-12-04T23:09:29.225Z,18.40
2022-12-04T23:11:57.855Z,17.43
2022-12-04T23:14:27.105Z,18.30
2022-12-04T23:16:55.362Z,19.10
2022-12-04T23:19:24.445Z,17.33
2022-12-04T23:21:56.973Z,17.60
2022-12-04T23:24:26.197Z,17.73
2022-12-04T23:26:55.760Z,18.20
2022-12-04T23:32:12.838Z,17.70
2022-12-04T23:34:41.043Z,19.07
2022-12-04T23:37:09.336Z,17.70
2022-12-04T23:39:37.499Z,17.83
2022-12-04T23:42:07.166Z,19.23
2022-12-04T23:44:35.358Z,18.37
2022-12-04T23:47:03.815Z,19.57
2022-12-04T23:49:32.046Z,18.10
2022-12-04T23:52:00.164Z,18.73
2022-12-04T23:54:30.216Z,18.10
2022-12-04T23:56:58.439Z,18.17
2022-12-04T23:59:27.991Z,18.87
